createdAt,value
2023-05-22T00:00:28.974Z,13.20
2023-05-22T00:01:28.983Z,11.40
2023-05-22T00:02:29.096Z,15.20
2023-05-22T00:03:29.066Z,9.80
2023-05-22T00:04:28.996Z,12.90
2023-05-22T00:05:29.006Z,11.80
2023-05-22T00:06:28.951Z,11.40
2023-05-22T00:07:28.946Z,10.90
2023-05-22T00:08:29.749Z,10.50
2023-05-22T00:09:28.936Z,14.10
2023-05-22T00:10:29.008Z,12.80
2023-05-22T00:11:28.938Z,13.70
2023-05-22T00:12:28.940Z,11.10
2023-05-22T00:13:28.940Z,14.50
2023-05-22T00:14:28.934Z,17.80
2023-05-22T00:15:28.914Z,10.70
2023-05-22T00:16:28.959Z,10.10
2023-05-22T00:17:28.933Z,10.20
2023-05-22T00:18:28.903Z,10.20
2023-05-22T00:19:28.938Z,10.10
2023-05-22T00:20:28.900Z,12.50
2023-05-22T00:21:28.896Z,11.40
2023-05-22T00:22:28.915Z,11.60
2023-05-22T00:23:28.907Z,13.30
2023-05-22T00:24:28.919Z,13.30
2023-05-22T00:25:28.886Z,10.90
2023-05-22T00:26:28.906Z,10.20
2023-05-22T00:27:28.873Z,10.80
2023-05-22T00:28:28.879Z,10.80
2023-05-22T00:29:28.870Z,9.30
2023-05-22T00:30:28.858Z,11.40
2023-05-22T00:31:28.882Z,10.60
2023-05-22T00:32:28.964Z,11.90
2023-05-22T00:33:28.864Z,12.40
2023-05-22T00:34:28.909Z,11.80
2023-05-22T00:35:28.841Z,12.50
2023-05-22T00:36:28.857Z,13.00
2023-05-22T00:37:30.914Z,10.80
2023-05-22T00:38:28.830Z,12.00
2023-05-22T00:39:28.844Z,11.40
2023-05-22T00:40:28.836Z,10.40
2023-05-22T00:41:28.828Z,12.40
2023-05-22T00:42:28.834Z,13.60
2023-05-22T00:43:28.843Z,11.00
2023-05-22T00:44:28.802Z,14.70
2023-05-22T00:45:28.833Z,10.30
2023-05-22T00:46:28.953Z,11.70
2023-05-22T00:47:28.855Z,13.20
2023-05-22T00:48:28.826Z,9.90
2023-05-22T00:49:28.822Z,16.80
2023-05-22T00:50:28.860Z,10.60
2023-05-22T00:51:28.806Z,12.80
2023-05-22T00:52:28.799Z,12.00
2023-05-22T00:53:28.785Z,13.90
2023-05-22T00:54:28.793Z,10.90
2023-05-22T00:55:28.767Z,10.90
2023-05-22T00:56:28.764Z,12.40
2023-05-22T00:57:28.751Z,13.60
2023-05-22T00:58:28.772Z,12.00
2023-05-22T00:59:28.763Z,9.90
2023-05-22T01:00:28.761Z,12.50
2023-05-22T01:01:28.760Z,17.40
2023-05-22T01:02:28.803Z,14.00
2023-05-22T01:03:28.834Z,9.20
2023-05-22T01:04:28.733Z,11.30
2023-05-22T01:05:28.732Z,11.90
2023-05-22T01:06:28.745Z,12.10
2023-05-22T01:07:28.722Z,9.90
2023-05-22T01:08:28.760Z,11.70
2023-05-22T01:09:28.736Z,10.30
2023-05-22T01:10:28.740Z,10.40
2023-05-22T01:11:28.697Z,10.30
2023-05-22T01:12:28.709Z,10.40
2023-05-22T01:13:28.697Z,11.50
2023-05-22T01:14:28.692Z,10.90
2023-05-22T01:15:28.725Z,14.50
2023-05-22T01:16:28.713Z,16.40
2023-05-22T01:17:28.771Z,13.30
2023-05-22T01:18:28.686Z,15.00
2023-05-22T01:19:28.742Z,10.70
2023-05-22T01:20:28.667Z,19.30
2023-05-22T01:21:28.663Z,13.70
2023-05-22T01:22:28.652Z,15.40
2023-05-22T01:23:28.655Z,18.40
2023-05-22T01:24:28.663Z,17.20
2023-05-22T01:25:28.631Z,11.80
2023-05-22T01:26:28.646Z,15.00
2023-05-22T01:27:28.619Z,11.70
2023-05-22T01:28:28.617Z,14.80
2023-05-22T01:29:28.635Z,14.90
2023-05-22T01:30:28.627Z,14.90
2023-05-22T01:31:28.644Z,12.20
2023-05-22T01:32:28.679Z,12.50
2023-05-22T01:33:28.718Z,12.10
2023-05-22T01:34:28.627Z,11.80
2023-05-22T01:35:28.593Z,14.50
2023-05-22T01:36:28.613Z,17.90
2023-05-22T01:37:28.601Z,11.00
2023-05-22T01:38:28.588Z,12.20
2023-05-22T01:39:28.583Z,12.20
2023-05-22T01:40:28.598Z,16.20
2023-05-22T01:41:28.593Z,10.30
2023-05-22T01:42:28.582Z,12.40
2023-05-22T01:43:28.559Z,13.40
2023-05-22T01:44:28.555Z,14.80
2023-05-22T01:45:49.614Z,15.50
2023-05-22T01:46:28.618Z,12.20
2023-05-22T01:47:28.556Z,17.40
2023-05-22T01:48:28.548Z,12.80
2023-05-22T01:49:28.573Z,18.90
2023-05-22T01:50:49.558Z,12.10
2023-05-22T01:51:28.528Z,12.20
2023-05-22T01:52:28.551Z,17.70
2023-05-22T01:53:28.535Z,13.20
2023-05-22T01:54:28.512Z,11.80
2023-05-22T01:55:28.534Z,13.00
2023-05-22T01:56:28.529Z,21.90
2023-05-22T01:57:28.519Z,11.10
2023-05-22T01:58:28.505Z,14.40
2023-05-22T01:59:28.500Z,13.80
2023-05-22T02:00:28.566Z,13.80
2023-05-22T02:01:28.564Z,10.50
2023-05-22T02:02:28.623Z,13.20
2023-05-22T02:03:28.607Z,10.40
2023-05-22T02:04:28.473Z,11.80
2023-05-22T02:05:28.496Z,13.40
2023-05-22T02:06:28.498Z,12.70
2023-05-22T02:07:28.484Z,15.40
2023-05-22T02:08:28.456Z,14.60
2023-05-22T02:09:28.478Z,11.90
2023-05-22T02:10:28.505Z,10.70
2023-05-22T02:11:28.486Z,14.80
2023-05-22T02:12:28.461Z,20.00
2023-05-22T02:13:28.438Z,14.90
2023-05-22T02:14:28.444Z,14.00
2023-05-22T02:15:28.484Z,10.90
2023-05-22T02:16:28.424Z,14.50
2023-05-22T02:17:28.492Z,12.00
2023-05-22T02:18:28.454Z,12.40
2023-05-22T02:19:28.440Z,13.10
2023-05-22T02:20:28.423Z,12.70
2023-05-22T02:21:28.419Z,14.30
2023-05-22T02:22:28.400Z,12.50
2023-05-22T02:23:28.406Z,13.70
2023-05-22T02:24:28.420Z,13.80
2023-05-22T02:25:28.396Z,16.60
2023-05-22T02:26:28.406Z,15.20
2023-05-22T02:27:28.411Z,12.80
2023-05-22T02:28:28.380Z,13.50
2023-05-22T02:29:28.373Z,11.60
2023-05-22T02:30:28.366Z,9.60
2023-05-22T02:31:28.434Z,13.60
2023-05-22T02:32:28.475Z,13.10
2023-05-22T02:33:28.387Z,18.70
2023-05-22T02:34:28.418Z,13.00
2023-05-22T02:35:28.353Z,10.50
2023-05-22T02:36:28.379Z,12.70
2023-05-22T02:37:28.342Z,14.10
2023-05-22T02:38:28.343Z,13.60
2023-05-22T02:39:28.351Z,15.40
2023-05-22T02:40:28.352Z,12.40
2023-05-22T02:41:28.325Z,11.10
2023-05-22T02:42:28.328Z,17.10
2023-05-22T02:43:28.305Z,12.50
2023-05-22T02:44:28.309Z,13.20
2023-05-22T02:45:28.328Z,19.50
2023-05-22T02:46:28.343Z,17.40
2023-05-22T02:47:28.397Z,10.80
2023-05-22T02:48:28.299Z,10.50
2023-05-22T02:49:28.296Z,14.80
2023-05-22T02:50:28.284Z,10.90
2023-05-22T02:51:28.302Z,11.10
2023-05-22T02:52:28.385Z,12.30
2023-05-22T02:53:28.279Z,31.30
2023-05-22T02:54:28.291Z,17.40
2023-05-22T02:55:28.258Z,13.10
2023-05-22T02:56:28.265Z,14.50
2023-05-22T02:57:28.265Z,10.30
2023-05-22T02:58:28.263Z,14.60
2023-05-22T02:59:28.244Z,18.50
2023-05-22T03:00:28.237Z,13.70
2023-05-22T03:01:28.277Z,18.50
2023-05-22T03:02:28.337Z,13.20
2023-05-22T03:03:28.314Z,15.20
2023-05-22T03:04:28.220Z,11.80
2023-05-22T03:05:28.217Z,11.60
2023-05-22T03:06:28.236Z,13.30
2023-05-22T03:07:28.229Z,12.70
2023-05-22T03:08:28.323Z,13.90
2023-05-22T03:09:28.214Z,10.90
2023-05-22T03:10:28.275Z,12.10
2023-05-22T03:11:28.190Z,15.00
2023-05-22T03:12:28.200Z,13.10
2023-05-22T03:13:28.173Z,15.20
2023-05-22T03:14:28.186Z,14.40
2023-05-22T03:15:28.170Z,16.70
2023-05-22T03:16:28.213Z,14.00
2023-05-22T03:17:28.237Z,14.10
2023-05-22T03:18:28.165Z,12.70
2023-05-22T03:19:28.270Z,11.70
2023-05-22T03:20:28.148Z,13.80
2023-05-22T03:21:28.147Z,17.20
2023-05-22T03:22:28.140Z,11.60
2023-05-22T03:23:28.155Z,12.50
2023-05-22T03:24:28.138Z,14.60
2023-05-22T03:25:28.137Z,15.00
2023-05-22T03:26:28.145Z,14.00
2023-05-22T03:27:28.121Z,12.30
2023-05-22T03:28:28.146Z,12.50
2023-05-22T03:29:28.128Z,12.50
2023-05-22T03:30:28.164Z,11.80
2023-05-22T03:31:28.102Z,16.10
2023-05-22T03:32:28.157Z,14.70
2023-05-22T03:33:28.126Z,16.00
2023-05-22T03:34:28.096Z,14.10
2023-05-22T03:35:28.116Z,12.70
2023-05-22T03:36:28.760Z,12.20
2023-05-22T03:37:28.074Z,14.60
2023-05-22T03:38:28.096Z,14.10
2023-05-22T03:39:28.079Z,12.10
2023-05-22T03:40:28.090Z,10.60
2023-05-22T03:41:28.066Z,16.40
2023-05-22T03:42:28.075Z,12.70
2023-05-22T03:43:28.070Z,12.10
2023-05-22T03:46:12.596Z,14.80
2023-05-22T03:47:12.537Z,24.40
2023-05-22T03:48:12.527Z,14.20
2023-05-22T03:49:12.516Z,13.80
2023-05-22T03:50:12.535Z,14.50
2023-05-22T03:51:12.514Z,15.30
2023-05-22T03:52:12.512Z,11.90
2023-05-22T03:53:12.499Z,12.60
2023-05-22T03:54:12.502Z,11.80
2023-05-22T03:55:12.492Z,12.70
2023-05-22T03:56:12.487Z,13.10
2023-05-22T03:57:12.489Z,13.00
2023-05-22T03:58:12.471Z,13.80
2023-05-22T03:59:12.481Z,14.10
2023-05-22T04:00:12.521Z,13.30
2023-05-22T04:01:12.472Z,16.30
2023-05-22T04:02:12.529Z,15.00
2023-05-22T04:03:12.572Z,16.50
2023-05-22T04:04:12.454Z,15.10
2023-05-22T04:05:12.513Z,11.40
2023-05-22T04:06:12.450Z,16.00
2023-05-22T04:07:12.435Z,12.30
2023-05-22T04:08:12.423Z,12.60
2023-05-22T04:09:12.426Z,12.80
2023-05-22T04:10:12.426Z,14.70
2023-05-22T04:11:12.421Z,14.80
2023-05-22T04:12:12.421Z,11.60
2023-05-22T04:13:12.407Z,15.70
2023-05-22T04:14:12.424Z,14.40
2023-05-22T04:15:12.398Z,11.30
2023-05-22T04:16:12.446Z,15.40
2023-05-22T04:17:12.388Z,11.30
2023-05-22T04:18:12.483Z,11.30
2023-05-22T04:19:12.441Z,13.60
2023-05-22T04:20:12.380Z,14.00
2023-05-22T04:21:12.375Z,11.70
2023-05-22T04:22:12.362Z,15.90
2023-05-22T04:23:12.365Z,25.70
2023-05-22T04:24:12.379Z,12.20
2023-05-22T04:25:12.352Z,10.30
2023-05-22T04:26:12.359Z,13.00
2023-05-22T04:27:12.351Z,17.50
2023-05-22T04:28:12.339Z,15.70
2023-05-22T04:29:12.332Z,15.60
2023-05-22T04:30:12.341Z,14.40
2023-05-22T04:31:12.391Z,10.20
2023-05-22T04:32:12.320Z,11.60
2023-05-22T04:33:12.389Z,11.90
2023-05-22T04:34:12.318Z,10.20
2023-05-22T04:35:12.359Z,20.80
2023-05-22T04:36:12.670Z,13.90
2023-05-22T04:37:33.314Z,13.80
2023-05-22T04:38:14.342Z,13.00
2023-05-22T04:39:12.328Z,15.10
2023-05-22T04:40:12.317Z,13.80
2023-05-22T04:41:12.285Z,13.40
2023-05-22T04:42:12.297Z,22.70
2023-05-22T04:43:12.291Z,14.60
2023-05-22T04:44:14.380Z,12.00
2023-05-22T04:45:12.272Z,15.70
2023-05-22T04:46:12.448Z,13.60
2023-05-22T04:47:12.331Z,17.00
2023-05-22T04:48:12.258Z,11.40
2023-05-22T04:49:12.302Z,14.90
2023-05-22T04:50:12.280Z,13.00
2023-05-22T04:51:12.264Z,13.00
2023-05-22T04:52:12.233Z,18.90
2023-05-22T04:53:12.234Z,13.40
2023-05-22T04:54:12.226Z,10.30
2023-05-22T04:55:12.246Z,12.30
2023-05-22T04:56:14.612Z,14.90
2023-05-22T04:57:12.217Z,12.60
2023-05-22T04:58:12.216Z,16.00
2023-05-22T04:59:12.216Z,14.20
2023-05-22T05:00:12.196Z,13.70
2023-05-22T05:01:12.239Z,11.90
2023-05-22T05:02:12.202Z,14.90
2023-05-22T05:03:12.262Z,14.40
2023-05-22T05:04:12.253Z,11.00
2023-05-22T05:05:12.181Z,15.30
2023-05-22T05:06:12.172Z,14.30
2023-05-22T05:07:12.164Z,16.70
2023-05-22T05:08:12.166Z,10.90
2023-05-22T05:09:12.162Z,16.80
2023-05-22T05:10:12.172Z,12.50
2023-05-22T05:11:12.153Z,13.30
2023-05-22T05:12:12.145Z,11.80
2023-05-22T05:13:12.143Z,16.80
2023-05-22T05:14:12.141Z,15.00
2023-05-22T05:15:12.153Z,12.80
2023-05-22T05:16:12.198Z,13.40
2023-05-22T05:17:12.123Z,15.30
2023-05-22T05:18:12.193Z,14.80
2023-05-22T05:19:12.176Z,14.60
2023-05-22T05:20:12.113Z,16.50
2023-05-22T05:21:12.109Z,15.70
2023-05-22T05:22:12.101Z,12.80
2023-05-22T05:23:12.110Z,15.80
2023-05-22T05:24:12.088Z,14.10
2023-05-22T05:25:12.086Z,13.70
2023-05-22T05:26:12.079Z,12.60
2023-05-22T05:27:12.076Z,18.00
2023-05-22T05:28:12.091Z,15.50
2023-05-22T05:29:12.092Z,13.90
2023-05-22T05:30:12.069Z,17.80
2023-05-22T05:31:12.070Z,13.30
2023-05-22T05:32:12.092Z,10.30
2023-05-22T05:33:12.148Z,13.50
2023-05-22T05:34:12.052Z,17.10
2023-05-22T05:35:12.043Z,13.10
2023-05-22T05:36:12.042Z,15.30
2023-05-22T05:37:12.037Z,13.00
2023-05-22T05:38:12.040Z,16.30
2023-05-22T05:39:12.046Z,19.40
2023-05-22T05:40:12.028Z,15.00
2023-05-22T05:41:12.058Z,14.80
2023-05-22T05:42:12.029Z,13.80
2023-05-22T05:43:12.009Z,13.50
2023-05-22T05:44:12.020Z,11.50
2023-05-22T05:45:11.997Z,14.90
2023-05-22T05:46:12.092Z,14.20
2023-05-22T05:47:12.009Z,14.60
2023-05-22T05:48:12.202Z,17.60
2023-05-22T05:49:12.016Z,12.60
2023-05-22T05:50:12.073Z,18.40
2023-05-22T05:51:12.007Z,12.60
2023-05-22T05:52:12.016Z,14.20
2023-05-22T05:53:11.970Z,13.40
2023-05-22T05:54:11.984Z,13.10
2023-05-22T05:55:11.987Z,28.50
2023-05-22T05:56:11.985Z,14.90
2023-05-22T05:57:11.957Z,22.80
2023-05-22T05:58:11.976Z,14.30
2023-05-22T05:59:11.961Z,12.00
2023-05-22T06:00:11.957Z,19.70
2023-05-22T06:01:11.955Z,14.40
2023-05-22T06:02:11.998Z,14.50
2023-05-22T06:03:12.067Z,16.10
2023-05-22T06:04:11.934Z,12.70
2023-05-22T06:05:11.995Z,13.80
2023-05-22T06:06:11.963Z,17.50
2023-05-22T06:07:11.936Z,21.70
2023-05-22T06:08:11.929Z,13.90
2023-05-22T06:09:11.911Z,16.60
2023-05-22T06:10:11.930Z,14.60
2023-05-22T06:11:11.906Z,14.50
2023-05-22T06:12:11.926Z,27.60
2023-05-22T06:13:11.916Z,15.40
2023-05-22T06:14:11.898Z,15.60
2023-05-22T06:15:11.885Z,11.90
2023-05-22T06:16:11.931Z,17.80
2023-05-22T06:17:11.867Z,14.20
2023-05-22T06:18:11.999Z,16.70
2023-05-22T06:19:11.939Z,27.50
2023-05-22T06:20:11.907Z,13.30
2023-05-22T06:21:11.875Z,15.40
2023-05-22T06:22:11.897Z,20.80
2023-05-22T06:23:11.869Z,19.40
2023-05-22T06:24:11.891Z,14.00
2023-05-22T06:25:11.850Z,17.90
2023-05-22T06:26:11.844Z,16.20
2023-05-22T06:27:11.866Z,15.70
2023-05-22T06:28:11.846Z,16.10
2023-05-22T06:29:11.833Z,15.70
2023-05-22T06:30:11.852Z,13.10
2023-05-22T06:31:11.818Z,16.10
2023-05-22T06:32:11.889Z,12.30
2023-05-22T06:33:11.869Z,21.50
2023-05-22T06:34:11.903Z,13.70
2023-05-22T06:35:11.879Z,16.30
2023-05-22T06:36:11.812Z,16.00
2023-05-22T06:37:11.801Z,14.10
2023-05-22T06:38:11.794Z,13.60
2023-05-22T06:39:11.819Z,15.30
2023-05-22T06:40:11.793Z,16.80
2023-05-22T06:41:11.816Z,13.20
2023-05-22T06:42:11.789Z,14.40
2023-05-22T06:43:11.782Z,15.40
2023-05-22T06:44:11.781Z,20.50
2023-05-22T06:45:11.796Z,15.50
2023-05-22T06:46:11.805Z,13.80
2023-05-22T06:47:11.773Z,14.30
2023-05-22T06:48:11.773Z,13.70
2023-05-22T06:49:11.767Z,16.10
2023-05-22T06:50:11.759Z,13.00
2023-05-22T06:51:11.821Z,17.50
2023-05-22T06:52:11.756Z,16.60
2023-05-22T06:53:11.745Z,17.80
2023-05-22T06:54:11.740Z,17.50
2023-05-22T06:55:11.749Z,15.80
2023-05-22T06:56:11.738Z,13.10
2023-05-22T06:57:11.743Z,16.20
2023-05-22T06:58:11.752Z,14.20
2023-05-22T06:59:11.729Z,19.10
2023-05-22T07:00:11.732Z,19.30
2023-05-22T07:01:11.736Z,15.50
2023-05-22T07:02:11.717Z,15.40
2023-05-22T07:03:11.738Z,15.30
2023-05-22T07:04:11.715Z,19.60
2023-05-22T07:05:11.709Z,25.50
2023-05-22T07:06:11.800Z,16.60
2023-05-22T07:07:11.707Z,32.90
2023-05-22T07:08:11.688Z,19.60
2023-05-22T07:09:11.697Z,16.90
2023-05-22T07:10:11.688Z,18.30
2023-05-22T07:11:11.683Z,18.40
2023-05-22T07:12:11.677Z,18.10
2023-05-22T07:13:11.675Z,21.90
2023-05-22T07:14:11.676Z,22.50
2023-05-22T07:15:11.665Z,20.10
2023-05-22T07:16:11.707Z,20.90
2023-05-22T07:17:11.663Z,21.00
2023-05-22T07:18:11.704Z,20.60
2023-05-22T07:19:11.712Z,18.10
2023-05-22T07:20:11.653Z,15.10
2023-05-22T07:21:11.670Z,19.80
2023-05-22T07:22:11.646Z,14.40
2023-05-22T07:23:11.651Z,21.20
2023-05-22T07:24:11.655Z,16.90
2023-05-22T07:25:11.640Z,19.50
2023-05-22T07:26:11.721Z,20.40
2023-05-22T07:27:11.632Z,21.70
2023-05-22T07:28:11.642Z,20.30
2023-05-22T07:29:11.615Z,25.70
2023-05-22T07:30:11.626Z,16.30
2023-05-22T07:31:11.637Z,19.10
2023-05-22T07:32:11.611Z,18.90
2023-05-22T07:33:11.708Z,19.50
2023-05-22T07:34:11.620Z,17.60
2023-05-22T07:35:11.610Z,15.80
2023-05-22T07:36:11.601Z,18.60
2023-05-22T07:37:11.598Z,19.30
2023-05-22T07:38:11.596Z,19.60
2023-05-22T07:39:11.596Z,19.70
2023-05-22T07:40:11.590Z,20.70
2023-05-22T07:41:11.583Z,18.40
2023-05-22T07:42:11.578Z,17.20
2023-05-22T07:43:11.575Z,22.70
2023-05-22T07:44:11.573Z,16.60
2023-05-22T07:45:11.569Z,18.10
2023-05-22T07:46:11.753Z,18.00
2023-05-22T07:47:11.568Z,14.20
2023-05-22T07:48:11.617Z,26.60
2023-05-22T07:49:11.560Z,17.70
2023-05-22T07:50:11.551Z,19.50
2023-05-22T07:51:11.547Z,18.40
2023-05-22T07:52:11.552Z,18.50
2023-05-22T07:53:11.539Z,23.40
2023-05-22T07:54:11.536Z,24.60
2023-05-22T07:55:11.526Z,24.00
2023-05-22T07:56:11.531Z,21.20
2023-05-22T07:57:11.547Z,20.40
2023-05-22T07:58:11.648Z,18.90
2023-05-22T07:59:11.517Z,34.30
2023-05-22T08:00:11.552Z,24.10
2023-05-22T08:01:11.520Z,22.00
2023-05-22T08:02:11.567Z,20.70
2023-05-22T08:03:11.568Z,17.40
2023-05-22T08:04:11.658Z,24.00
2023-05-22T08:05:11.547Z,44.40
2023-05-22T08:06:11.500Z,24.20
2023-05-22T08:07:11.493Z,17.10
2023-05-22T08:08:11.486Z,21.50
2023-05-22T08:09:11.488Z,20.00
2023-05-22T08:10:11.498Z,31.90
2023-05-22T08:11:11.497Z,21.50
2023-05-22T08:12:11.492Z,23.30
2023-05-22T08:13:11.473Z,26.30
2023-05-22T08:14:11.552Z,19.90
2023-05-22T08:15:11.473Z,26.10
2023-05-22T08:16:11.464Z,24.00
2023-05-22T08:17:11.510Z,22.90
2023-05-22T08:18:11.508Z,21.60
2023-05-22T08:19:11.512Z,18.30
2023-05-22T08:20:11.639Z,23.60
2023-05-22T08:21:11.442Z,22.80
2023-05-22T08:22:11.441Z,23.50
2023-05-22T08:23:11.505Z,22.40
2023-05-22T08:24:11.452Z,25.90
2023-05-22T08:25:11.439Z,17.70
2023-05-22T08:26:11.453Z,23.30
2023-05-22T08:27:11.431Z,23.60
2023-05-22T08:28:11.424Z,27.30
2023-05-22T08:29:11.422Z,30.10
2023-05-22T08:30:11.458Z,26.00
2023-05-22T08:31:11.471Z,20.10
2023-05-22T08:32:11.423Z,27.30
2023-05-22T08:33:11.437Z,20.70
2023-05-22T08:34:11.417Z,18.60
2023-05-22T08:35:11.413Z,25.20
2023-05-22T08:36:11.419Z,20.90
2023-05-22T08:37:11.405Z,22.30
2023-05-22T08:38:11.404Z,24.20
2023-05-22T08:39:11.401Z,22.30
2023-05-22T08:40:11.403Z,21.50
2023-05-22T08:41:11.457Z,26.70
2023-05-22T08:42:11.392Z,22.20
2023-05-22T08:43:11.413Z,22.40
2023-05-22T08:44:11.394Z,25.20
2023-05-22T08:45:11.402Z,19.40
2023-05-22T08:46:11.410Z,24.50
2023-05-22T08:47:11.471Z,27.40
2023-05-22T08:48:11.376Z,22.50
2023-05-22T08:49:11.379Z,17.40
2023-05-22T08:50:11.381Z,18.40
2023-05-22T08:51:11.379Z,18.40
2023-05-22T08:52:11.384Z,21.60
2023-05-22T08:53:11.402Z,21.20
2023-05-22T08:54:11.379Z,27.20
2023-05-22T08:55:11.370Z,25.20
2023-05-22T08:56:11.362Z,17.10
2023-05-22T08:57:11.373Z,15.30
2023-05-22T08:58:11.364Z,19.50
2023-05-22T08:59:11.359Z,22.80
2023-05-22T09:00:11.369Z,25.00
2023-05-22T09:01:11.374Z,22.40
2023-05-22T09:02:11.483Z,22.60
2023-05-22T09:03:11.446Z,17.60
2023-05-22T09:04:11.454Z,19.20
2023-05-22T09:05:11.352Z,19.40
2023-05-22T09:06:11.346Z,23.80
2023-05-22T09:07:11.352Z,22.10
2023-05-22T09:08:19.608Z,23.50
2023-05-22T09:09:11.355Z,22.90
2023-05-22T09:10:11.359Z,20.50
2023-05-22T09:11:11.361Z,18.70
2023-05-22T09:12:11.390Z,21.40
2023-05-22T09:13:11.398Z,19.50
2023-05-22T09:14:11.346Z,20.20
2023-05-22T09:15:11.355Z,15.90
2023-05-22T09:16:11.353Z,20.60
2023-05-22T09:17:11.568Z,25.20
2023-05-22T09:18:11.373Z,23.60
2023-05-22T09:19:11.396Z,22.70
2023-05-22T09:20:11.344Z,21.60
2023-05-22T09:21:25.698Z,23.60
2023-05-22T09:22:11.349Z,18.90
2023-05-22T09:23:11.365Z,19.50
2023-05-22T09:24:11.343Z,22.40
2023-05-22T09:25:11.353Z,23.00
2023-05-22T09:26:11.343Z,18.90
2023-05-22T09:27:11.361Z,20.90
2023-05-22T09:28:11.346Z,20.30
2023-05-22T09:29:11.347Z,23.30
2023-05-22T09:30:11.345Z,17.00
2023-05-22T09:31:11.397Z,29.00
2023-05-22T09:32:11.345Z,21.80
2023-05-22T09:33:11.353Z,18.40
2023-05-22T09:34:11.348Z,19.90
2023-05-22T09:35:11.346Z,23.20
2023-05-22T09:36:11.346Z,22.40
2023-05-22T09:37:11.353Z,23.70
2023-05-22T09:38:12.288Z,23.20
2023-05-22T09:39:11.363Z,25.70
2023-05-22T09:40:11.349Z,20.20
2023-05-22T09:41:11.346Z,25.60
2023-05-22T09:42:11.362Z,27.40
2023-05-22T09:43:11.363Z,23.70
2023-05-22T09:44:11.349Z,23.00
2023-05-22T09:45:11.359Z,16.80
2023-05-22T09:46:11.388Z,25.60
2023-05-22T09:47:11.397Z,21.60
2023-05-22T09:48:11.355Z,21.00
2023-05-22T09:49:14.158Z,17.40
2023-05-22T09:50:11.421Z,21.70
2023-05-22T09:51:11.366Z,22.50
2023-05-22T09:52:11.359Z,17.70
2023-05-22T09:53:11.358Z,22.00
2023-05-22T09:54:11.362Z,18.20
2023-05-22T09:55:11.375Z,20.20
2023-05-22T09:56:11.361Z,22.00
2023-05-22T09:57:11.382Z,17.60
2023-05-22T09:58:11.372Z,27.80
2023-05-22T09:59:11.376Z,24.10
2023-05-22T10:00:11.399Z,22.40
2023-05-22T10:01:11.383Z,20.80
2023-05-22T10:02:11.440Z,22.50
2023-05-22T10:03:11.404Z,22.60
2023-05-22T10:04:11.405Z,21.40
2023-05-22T10:05:11.395Z,27.60
2023-05-22T10:06:11.390Z,20.60
2023-05-22T10:07:11.402Z,21.10
2023-05-22T10:08:11.401Z,17.90
2023-05-22T10:09:11.390Z,22.40
2023-05-22T10:10:11.416Z,17.60
2023-05-22T10:11:11.416Z,19.00
2023-05-22T10:12:11.418Z,20.00
2023-05-22T10:13:11.413Z,21.60
2023-05-22T10:14:11.404Z,21.90
2023-05-22T10:15:11.431Z,19.00
2023-05-22T10:16:11.478Z,23.70
2023-05-22T10:17:11.427Z,22.90
2023-05-22T10:18:11.480Z,26.80
2023-05-22T10:19:11.468Z,23.10
2023-05-22T10:20:11.420Z,25.90
2023-05-22T10:21:11.430Z,20.70
2023-05-22T10:22:11.519Z,22.00
2023-05-22T10:23:11.434Z,27.90
2023-05-22T10:24:11.440Z,18.10
2023-05-22T10:25:11.452Z,32.60
2023-05-22T10:26:11.440Z,23.20
2023-05-22T10:27:11.446Z,21.70
2023-05-22T10:28:11.440Z,19.00
2023-05-22T10:29:11.446Z,20.60
2023-05-22T10:30:11.485Z,21.90
2023-05-22T10:31:11.457Z,20.80
2023-05-22T10:32:11.449Z,21.60
2023-05-22T10:33:11.527Z,20.10
2023-05-22T10:34:11.487Z,22.60
2023-05-22T10:35:11.465Z,19.20
2023-05-22T10:36:11.470Z,24.20
2023-05-22T10:37:17.122Z,20.90
2023-05-22T10:38:11.564Z,21.20
2023-05-22T10:39:11.468Z,22.40
2023-05-22T10:40:11.476Z,25.10
2023-05-22T10:41:11.475Z,22.30
2023-05-22T10:42:11.486Z,20.40
2023-05-22T10:43:11.482Z,19.60
2023-05-22T10:44:11.479Z,20.30
2023-05-22T10:45:11.479Z,27.80
2023-05-22T10:46:11.554Z,24.20
2023-05-22T10:47:11.535Z,17.80
2023-05-22T10:48:11.481Z,18.40
2023-05-22T10:49:11.492Z,23.70
2023-05-22T10:50:11.561Z,23.50
2023-05-22T10:51:11.494Z,28.10
2023-05-22T10:52:11.493Z,20.60
2023-05-22T10:53:11.501Z,21.10
2023-05-22T10:54:11.575Z,22.60
2023-05-22T10:55:11.513Z,21.80
2023-05-22T10:56:11.480Z,20.70
2023-05-22T10:57:11.491Z,19.70
2023-05-22T10:58:11.501Z,20.20
2023-05-22T10:59:11.505Z,22.00
2023-05-22T11:00:11.488Z,21.30
2023-05-22T11:01:11.509Z,19.70
2023-05-22T11:02:11.659Z,16.10
2023-05-22T11:03:18.006Z,14.40
2023-05-22T11:04:11.553Z,19.20
2023-05-22T11:05:11.583Z,15.50
2023-05-22T11:06:11.494Z,18.70
2023-05-22T11:07:11.496Z,22.40
2023-05-22T11:08:11.493Z,18.40
2023-05-22T11:09:11.502Z,17.30
2023-05-22T11:10:11.578Z,17.30
2023-05-22T11:11:11.517Z,13.60
2023-05-22T11:12:11.497Z,24.00
2023-05-22T11:13:11.497Z,16.60
2023-05-22T11:14:11.505Z,18.40
2023-05-22T11:15:11.492Z,18.50
2023-05-22T11:16:11.487Z,18.70
2023-05-22T11:17:11.543Z,16.10
2023-05-22T11:18:11.615Z,24.80
2023-05-22T11:19:22.653Z,19.80
2023-05-22T11:20:11.695Z,24.80
2023-05-22T11:21:11.507Z,19.10
2023-05-22T11:22:11.501Z,29.60
2023-05-22T11:23:11.522Z,12.80
2023-05-22T11:24:11.518Z,19.90
2023-05-22T11:25:11.525Z,20.70
2023-05-22T11:26:11.590Z,21.80
2023-05-22T11:27:11.501Z,17.60
2023-05-22T11:28:11.506Z,20.50
2023-05-22T11:29:11.500Z,17.30
2023-05-22T11:30:11.506Z,18.90
2023-05-22T11:31:11.531Z,20.60
2023-05-22T11:32:11.503Z,18.80
2023-05-22T11:33:11.552Z,19.70
2023-05-22T11:34:11.532Z,18.80
2023-05-22T11:35:11.505Z,25.70
2023-05-22T11:36:11.512Z,20.80
2023-05-22T11:37:11.498Z,21.60
2023-05-22T11:38:11.540Z,19.40
2023-05-22T11:39:11.505Z,16.10
2023-05-22T11:40:11.501Z,20.50
2023-05-22T11:41:11.494Z,23.40
2023-05-22T11:42:11.602Z,19.40
2023-05-22T11:43:11.528Z,24.90
2023-05-22T11:44:11.506Z,18.30
2023-05-22T11:45:11.509Z,15.90
2023-05-22T11:46:11.533Z,22.30
2023-05-22T11:47:11.510Z,15.80
2023-05-22T11:48:12.830Z,17.90
2023-05-22T11:49:11.511Z,21.70
2023-05-22T11:50:11.519Z,18.30
2023-05-22T11:51:11.535Z,23.20
2023-05-22T11:52:11.515Z,19.60
2023-05-22T11:53:11.503Z,24.30
2023-05-22T11:54:11.504Z,25.50
2023-05-22T11:55:11.519Z,17.30
2023-05-22T11:56:11.512Z,17.00
2023-05-22T11:57:11.503Z,17.60
2023-05-22T11:58:11.611Z,21.60
2023-05-22T11:59:11.508Z,19.80
2023-05-22T12:00:11.534Z,23.50
2023-05-22T12:01:11.514Z,22.80
2023-05-22T12:02:11.507Z,25.30
2023-05-22T12:03:11.542Z,20.50
2023-05-22T12:04:11.638Z,20.10
2023-05-22T12:05:11.507Z,19.80
2023-05-22T12:06:11.527Z,20.20
2023-05-22T12:07:11.508Z,24.80
2023-05-22T12:08:11.505Z,23.00
2023-05-22T12:09:11.502Z,21.70
2023-05-22T12:10:11.543Z,19.90
2023-05-22T12:11:11.507Z,18.20
2023-05-22T12:12:11.537Z,22.00
2023-05-22T12:13:11.497Z,19.90
2023-05-22T12:14:11.613Z,26.60
2023-05-22T12:15:11.543Z,19.80
2023-05-22T12:16:11.533Z,23.40
2023-05-22T12:17:11.508Z,22.70
2023-05-22T12:18:11.544Z,23.10
2023-05-22T12:19:11.580Z,22.80
2023-05-22T12:20:11.516Z,27.00
2023-05-22T12:21:11.514Z,25.30
2023-05-22T12:22:11.504Z,20.40
2023-05-22T12:23:11.514Z,22.70
2023-05-22T12:24:11.508Z,20.10
2023-05-22T12:25:11.506Z,23.20
2023-05-22T12:26:11.503Z,26.60
2023-05-22T12:27:11.509Z,28.40
2023-05-22T12:28:11.503Z,34.00
2023-05-22T12:29:11.510Z,21.10
2023-05-22T12:30:11.610Z,19.40
2023-05-22T12:31:11.517Z,22.70
2023-05-22T12:32:11.658Z,20.20
2023-05-22T12:33:11.556Z,27.80
2023-05-22T12:34:11.511Z,23.60
2023-05-22T12:35:11.539Z,20.00
2023-05-22T12:36:11.502Z,20.30
2023-05-22T12:37:11.550Z,25.10
2023-05-22T12:38:11.532Z,23.60
2023-05-22T12:39:11.551Z,22.20
2023-05-22T12:40:11.567Z,20.50
2023-05-22T12:41:11.523Z,26.50
2023-05-22T12:42:11.507Z,21.20
2023-05-22T12:43:11.514Z,21.50
2023-05-22T12:44:11.512Z,20.50
2023-05-22T12:45:11.554Z,19.90
2023-05-22T12:46:11.634Z,21.10
2023-05-22T12:47:11.507Z,20.50
2023-05-22T12:48:11.548Z,26.60
2023-05-22T12:49:11.513Z,28.00
2023-05-22T12:50:11.558Z,22.10
2023-05-22T12:51:11.513Z,18.80
2023-05-22T12:52:11.512Z,19.20
2023-05-22T12:53:11.513Z,18.60
2023-05-22T12:54:11.511Z,19.90